イスタンブル の空港の天気 - METARとTAF

アタテュルク国際空港(イスタンブル) ( LTBA / IST ) - トルコ イスタンブル
飛行場実況気象(Metar)
観測時間06/17 22:20 EET (06/17 19:20 UTC)
風向・風速北北東 5m/s
視程10km以上
天気現象
なし
気温26℃
湿度79%
気圧1011hPa
METARLTBA 171920Z 03010KT 360V060 CAVOK 26/22 Q1011 NOSIG RMK RWY17L 03010KT 010V070 RWY05 03010KT RWY23 05011KT 020V080
過去の天気等 Google飛行場航空写真 Wunderground天気予報

過去48時間のMETAR

飛行場予報(TAF)
発表時間: 6/17 19:40 EET (6/17 16:40 UTC)
予報対象時間: 17日21時 EET ~ 19日3時 EET
風向・風速北北東 7m/s
視程10km以上
なし
17日21時 EET ~ 17日24時 EET に徐々に
全天の4割程度の雲 雲底高度 1220m
全天の8割程度の雲 雲底高度 3050m
18日11時 EET ~ 18日14時 EET に徐々に
視程10km以上
なし
18日12時 EET ~ 18日16時 EET に一時的に
風向・風速北北東 8m/s 瞬間風速 13m/s
18日20時 EET ~ 18日23時 EET に徐々に
全天の4割程度の雲 雲底高度 1220m
TAF LTBA 171640Z 1718/1824 02014KT CAVOK
BECMG 1718/1721 SCT040 BKN100
BECMG 1808/1811 CAVOK
TEMPO 1809/1813 02016G26KT
BECMG 1817/1820 SCT040